createdAt,value
2022-10-25T00:02:49.454Z,9.14
2022-10-25T00:05:57.879Z,9.16
2022-10-25T00:09:06.435Z,9.19
2022-10-25T00:12:14.832Z,9.15
2022-10-25T00:15:23.540Z,9.14
2022-10-25T00:18:33.561Z,9.11
2022-10-25T00:21:42.035Z,9.21
2022-10-25T00:24:50.225Z,9.19
2022-10-25T00:27:58.373Z,9.32
2022-10-25T00:31:09.986Z,9.47
2022-10-25T00:34:19.807Z,9.53
2022-10-25T00:37:28.357Z,9.56
2022-10-25T00:40:36.660Z,9.38
2022-10-25T00:43:48.949Z,9.40
2022-10-25T00:46:57.642Z,9.32
2022-10-25T00:50:21.953Z,9.27
2022-10-25T00:53:38.136Z,9.28
2022-10-25T00:56:51.894Z,9.21
2022-10-25T01:00:01.728Z,9.30
2022-10-25T01:03:10.195Z,9.09
2022-10-25T01:06:28.027Z,9.02
2022-10-25T01:09:40.414Z,9.01
2022-10-25T01:12:52.011Z,9.02
2022-10-25T01:16:18.123Z,9.09
2022-10-25T01:19:49.167Z,9.08
2022-10-25T01:23:19.046Z,9.07
2022-10-25T01:27:12.998Z,9.00
2022-10-25T01:30:24.731Z,9.11
2022-10-25T01:33:44.156Z,8.81
2022-10-25T01:37:04.977Z,8.90
2022-10-25T01:40:27.214Z,8.67
2022-10-25T01:43:54.774Z,8.61
2022-10-25T01:47:05.749Z,8.60
2022-10-25T01:50:20.345Z,8.72
2022-10-25T01:53:28.487Z,8.69
2022-10-25T01:56:50.821Z,8.51
2022-10-25T02:00:12.843Z,8.61
2022-10-25T02:03:32.314Z,8.86
2022-10-25T02:07:01.128Z,9.00
2022-10-25T02:10:17.451Z,9.30
2022-10-25T02:13:34.207Z,9.37
2022-10-25T02:16:52.542Z,9.64
2022-10-25T02:20:06.274Z,9.56
2022-10-25T02:23:19.404Z,9.62
2022-10-25T02:26:29.151Z,9.73
2022-10-25T02:29:39.535Z,9.80
2022-10-25T02:32:47.883Z,9.98
2022-10-25T02:36:14.009Z,9.95
2022-10-25T02:39:29.034Z,10.12
2022-10-25T02:42:39.676Z,10.26
2022-10-25T02:45:48.216Z,10.33
2022-10-25T02:48:56.773Z,10.33
2022-10-25T02:52:05.540Z,10.22
2022-10-25T02:55:18.148Z,10.35
2022-10-25T02:58:26.579Z,10.30
2022-10-25T03:01:34.982Z,10.37
2022-10-25T03:04:43.614Z,10.53
2022-10-25T03:07:51.843Z,10.54
2022-10-25T03:11:02.016Z,10.62
2022-10-25T03:14:10.173Z,10.60
2022-10-25T03:17:18.512Z,10.63
2022-10-25T03:20:27.037Z,10.68
2022-10-25T03:23:35.951Z,10.79
2022-10-25T03:26:45.868Z,10.86
2022-10-25T03:29:55.730Z,10.87
2022-10-25T03:33:04.099Z,10.88
2022-10-25T03:36:12.360Z,10.91
2022-10-25T03:39:20.503Z,11.02
2022-10-25T03:42:30.365Z,10.86
2022-10-25T03:45:38.817Z,11.03
2022-10-25T03:48:47.475Z,10.97
2022-10-25T03:51:58.866Z,10.95
2022-10-25T03:55:10.981Z,10.90
2022-10-25T03:58:20.948Z,10.89
2022-10-25T04:01:29.568Z,10.86
2022-10-25T04:04:37.943Z,10.98
2022-10-25T04:07:46.677Z,10.98
2022-10-25T04:10:55.351Z,11.05
2022-10-25T04:14:05.072Z,11.05
2022-10-25T04:17:13.526Z,11.06
2022-10-25T04:20:22.717Z,10.95
2022-10-25T04:23:31.359Z,10.96
2022-10-25T04:26:40.002Z,10.95
2022-10-25T04:29:52.337Z,11.00
2022-10-25T04:33:01.851Z,10.98
2022-10-25T04:36:10.424Z,10.79
2022-10-25T04:39:18.891Z,10.81
2022-10-25T04:42:27.153Z,10.53
2022-10-25T04:45:36.935Z,10.61
2022-10-25T04:48:45.426Z,10.64
2022-10-25T04:51:53.671Z,10.67
2022-10-25T04:55:02.318Z,10.79
2022-10-25T04:58:10.831Z,10.73
2022-10-25T05:01:20.627Z,10.71
2022-10-25T05:04:28.792Z,10.86
2022-10-25T05:07:37.151Z,10.79
2022-10-25T05:10:45.504Z,10.67
2022-10-25T05:13:53.765Z,10.66
2022-10-25T05:17:03.339Z,10.55
2022-10-25T05:20:12.156Z,10.38
2022-10-25T05:23:20.749Z,10.40
2022-10-25T05:26:28.994Z,10.37
2022-10-25T05:29:37.315Z,10.33
2022-10-25T05:32:47.191Z,10.31
2022-10-25T05:35:55.561Z,10.21
2022-10-25T05:39:03.827Z,10.28
2022-10-25T05:42:12.282Z,10.29
2022-10-25T05:45:20.509Z,10.41
2022-10-25T05:48:30.353Z,10.52
2022-10-25T05:51:39.376Z,10.55
2022-10-25T05:54:47.861Z,10.47
2022-10-25T05:57:56.097Z,10.58
2022-10-25T06:01:04.831Z,10.68
2022-10-25T06:04:15.478Z,10.79
2022-10-25T06:07:23.695Z,10.82
2022-10-25T06:10:32.181Z,10.84
2022-10-25T06:13:41.122Z,10.89
2022-10-25T06:16:49.388Z,11.09
2022-10-25T06:19:59.249Z,11.23
2022-10-25T06:23:09.230Z,11.25
2022-10-25T06:26:22.981Z,11.36
2022-10-25T06:29:31.474Z,11.21
2022-10-25T06:32:39.663Z,11.35
2022-10-25T06:35:55.818Z,11.38
2022-10-25T06:39:06.603Z,11.43
2022-10-25T06:42:18.535Z,11.50
2022-10-25T06:45:26.830Z,11.59
2022-10-25T06:48:35.643Z,11.74
2022-10-25T06:51:45.532Z,11.79
2022-10-25T06:54:53.755Z,11.67
2022-10-25T06:58:02.851Z,11.47
2022-10-25T07:01:15.561Z,11.25
2022-10-25T07:04:23.861Z,11.18
2022-10-25T07:07:33.430Z,11.09
2022-10-25T07:10:41.730Z,10.97
2022-10-25T07:13:50.016Z,11.07
2022-10-25T07:16:59.045Z,11.12
2022-10-25T07:20:09.028Z,11.12
2022-10-25T07:23:18.877Z,11.09
2022-10-25T07:26:31.339Z,11.18
2022-10-25T07:29:39.579Z,11.47
2022-10-25T07:32:47.895Z,11.82
2022-10-25T07:36:06.525Z,12.24
2022-10-25T07:39:20.159Z,12.60
2022-10-25T07:42:28.430Z,12.89
2022-10-25T07:45:37.794Z,13.11
2022-10-25T07:48:48.104Z,13.37
2022-10-25T07:51:56.629Z,13.86
2022-10-25T07:55:07.467Z,14.04
2022-10-25T07:58:15.917Z,14.36
2022-10-25T08:01:28.587Z,14.52
2022-10-25T08:04:36.906Z,14.60
2022-10-25T08:07:45.650Z,14.76
2022-10-25T08:10:57.207Z,15.15
2022-10-25T08:14:05.495Z,15.27
2022-10-25T08:17:14.293Z,15.19
2022-10-25T08:20:29.247Z,14.98
2022-10-25T08:23:51.837Z,14.74
2022-10-25T08:27:01.763Z,14.44
2022-10-25T08:30:11.426Z,14.49
2022-10-25T08:33:19.922Z,14.46
2022-10-25T08:36:28.991Z,14.35
2022-10-25T08:39:40.289Z,14.30
2022-10-25T08:43:08.183Z,14.37
2022-10-25T08:46:25.144Z,14.63
2022-10-25T08:49:51.949Z,14.87
2022-10-25T08:53:07.294Z,14.99
2022-10-25T08:56:19.510Z,14.94
2022-10-25T08:59:36.925Z,14.92
2022-10-25T09:02:52.955Z,15.09
2022-10-25T09:06:22.690Z,15.08
2022-10-25T09:09:43.710Z,14.96
2022-10-25T09:13:09.881Z,14.87
2022-10-25T09:16:30.315Z,15.04
2022-10-25T09:19:51.752Z,15.71
2022-10-25T09:23:11.756Z,16.02
2022-10-25T09:26:40.624Z,15.81
2022-10-25T09:29:55.969Z,15.72
2022-10-25T09:33:12.052Z,15.67
2022-10-25T09:36:21.117Z,15.60
2022-10-25T09:39:40.428Z,15.61
2022-10-25T09:42:55.096Z,15.52
2022-10-25T09:46:12.720Z,15.45
2022-10-25T09:49:30.741Z,15.23
2022-10-25T09:52:56.951Z,15.16
2022-10-25T09:56:07.082Z,15.15
2022-10-25T09:59:16.809Z,15.05
2022-10-25T10:02:28.466Z,15.23
2022-10-25T10:05:40.759Z,15.30
2022-10-25T10:08:55.080Z,15.08
2022-10-25T10:12:06.660Z,15.31
2022-10-25T10:15:23.355Z,15.56
2022-10-25T10:18:34.005Z,15.74
2022-10-25T10:21:46.957Z,15.95
2022-10-25T10:25:02.324Z,16.01
2022-10-25T10:28:16.139Z,15.95
2022-10-25T10:31:24.376Z,15.89
2022-10-25T10:34:37.688Z,15.85
2022-10-25T10:37:47.401Z,16.07
2022-10-25T10:41:14.837Z,16.12
2022-10-25T10:44:22.992Z,16.16
2022-10-25T10:47:37.809Z,16.18
2022-10-25T10:50:51.041Z,16.26
2022-10-25T10:54:14.984Z,16.35
2022-10-25T10:57:35.943Z,16.45
2022-10-25T11:00:52.358Z,16.58
2022-10-25T11:04:01.933Z,16.58
2022-10-25T11:07:15.414Z,16.72
2022-10-25T11:10:32.425Z,16.82
2022-10-25T11:13:40.718Z,16.94
2022-10-25T11:17:00.313Z,17.08
2022-10-25T11:20:26.025Z,17.08
2022-10-25T11:23:53.762Z,17.15
2022-10-25T11:27:15.720Z,17.27
2022-10-25T11:30:27.469Z,17.26
2022-10-25T11:33:52.271Z,17.43
2022-10-25T11:37:18.007Z,17.45
2022-10-25T11:40:33.698Z,17.46
2022-10-25T11:44:09.410Z,17.48
2022-10-25T11:47:35.142Z,17.49
2022-10-25T11:50:53.039Z,17.42
2022-10-25T11:54:14.515Z,17.11
2022-10-25T11:57:37.953Z,17.13
2022-10-25T12:01:00.981Z,17.10
2022-10-25T12:04:45.107Z,16.86
2022-10-25T12:08:08.705Z,16.90
2022-10-25T12:11:22.912Z,16.91
2022-10-25T12:14:39.101Z,16.78
2022-10-25T12:17:50.929Z,16.95
2022-10-25T12:21:00.182Z,17.20
2022-10-25T12:24:20.429Z,17.35
2022-10-25T12:27:31.162Z,17.27
2022-10-25T12:30:43.724Z,17.34
2022-10-25T12:33:59.869Z,17.58
2022-10-25T12:37:15.806Z,18.01
2022-10-25T12:40:26.246Z,18.21
2022-10-25T12:43:43.435Z,18.23
2022-10-25T12:47:25.772Z,18.16
2022-10-25T12:51:21.187Z,18.08
2022-10-25T12:54:48.977Z,18.15
2022-10-25T12:58:14.363Z,18.11
2022-10-25T13:01:44.469Z,17.88
2022-10-25T13:05:40.371Z,17.62
2022-10-25T13:08:51.132Z,17.81
2022-10-25T13:12:03.196Z,17.67
2022-10-25T13:15:20.203Z,17.65
2022-10-25T13:18:43.995Z,17.63
2022-10-25T13:22:35.703Z,17.74
2022-10-25T13:26:09.778Z,17.55
2022-10-25T13:30:01.656Z,17.43
2022-10-25T13:33:33.352Z,17.41
2022-10-25T13:36:49.632Z,17.32
2022-10-25T13:40:00.763Z,17.34
2022-10-25T13:43:21.905Z,17.28
2022-10-25T13:46:38.754Z,16.88
2022-10-25T13:49:49.682Z,16.82
2022-10-25T13:53:06.625Z,16.86
2022-10-25T13:56:18.030Z,16.84
2022-10-25T14:00:01.987Z,17.11
2022-10-25T14:03:35.905Z,17.17
2022-10-25T14:06:44.208Z,17.21
2022-10-25T14:09:54.876Z,17.26
2022-10-25T14:13:23.101Z,17.17
2022-10-25T14:16:36.446Z,17.21
2022-10-25T14:19:49.398Z,17.28
2022-10-25T14:23:02.778Z,17.23
2022-10-25T14:26:16.803Z,17.29
2022-10-25T14:29:28.873Z,17.25
2022-10-25T14:32:38.865Z,17.16
2022-10-25T14:35:50.205Z,17.11
2022-10-25T14:39:00.731Z,17.05
2022-10-25T14:42:18.882Z,16.97
2022-10-25T14:45:28.007Z,16.87
2022-10-25T14:48:38.141Z,16.87
2022-10-25T14:51:48.489Z,16.84
2022-10-25T14:55:02.575Z,16.79
2022-10-25T14:58:14.011Z,16.78
2022-10-25T15:01:24.208Z,16.71
2022-10-25T15:04:39.906Z,16.69
2022-10-25T15:07:51.444Z,16.67
2022-10-25T15:11:05.510Z,16.56
2022-10-25T15:14:21.957Z,16.23
2022-10-25T15:17:31.949Z,16.26
2022-10-25T15:20:41.612Z,16.11
2022-10-25T15:24:16.625Z,16.01
2022-10-25T15:27:35.321Z,16.10
2022-10-25T15:31:01.056Z,16.00
2022-10-25T15:34:14.402Z,16.03
2022-10-25T15:37:26.512Z,15.82
2022-10-25T15:40:38.294Z,15.77
2022-10-25T15:43:46.512Z,15.43
2022-10-25T15:46:55.634Z,15.22
2022-10-25T15:50:14.238Z,15.05
2022-10-25T15:53:26.093Z,14.82
2022-10-25T15:56:34.606Z,14.67
2022-10-25T15:59:42.955Z,14.43
2022-10-25T16:02:52.639Z,14.34
2022-10-25T16:06:01.045Z,14.04
2022-10-25T16:09:14.768Z,13.83
2022-10-25T16:12:33.614Z,13.65
2022-10-25T16:15:42.026Z,13.46
2022-10-25T16:18:50.434Z,13.28
2022-10-25T16:21:59.447Z,13.12
2022-10-25T16:25:10.499Z,13.01
2022-10-25T16:28:19.631Z,12.90
2022-10-25T16:31:28.028Z,12.77
2022-10-25T16:34:36.253Z,12.71
2022-10-25T16:37:45.029Z,12.66
2022-10-25T16:40:54.939Z,12.53
2022-10-25T16:44:03.166Z,12.47
2022-10-25T16:47:11.518Z,12.34
2022-10-25T16:50:23.599Z,12.26
2022-10-25T16:53:31.894Z,12.16
2022-10-25T16:56:41.451Z,12.14
2022-10-25T16:59:50.555Z,12.05
2022-10-25T17:02:59.382Z,11.96
2022-10-25T17:06:22.207Z,11.85
2022-10-25T17:09:36.301Z,11.73
2022-10-25T17:12:48.485Z,11.63
2022-10-25T17:15:56.984Z,11.60
2022-10-25T17:19:05.452Z,11.48
2022-10-25T17:22:14.018Z,11.41
2022-10-25T17:25:22.701Z,11.34
2022-10-25T17:28:33.253Z,11.28
2022-10-25T17:31:41.627Z,11.23
2022-10-25T17:34:50.101Z,11.22
2022-10-25T17:37:58.938Z,11.16
2022-10-25T17:41:08.486Z,11.06
2022-10-25T17:44:18.602Z,11.01
2022-10-25T17:47:27.380Z,10.95
2022-10-25T17:50:40.957Z,10.91
2022-10-25T17:53:54.315Z,10.87
2022-10-25T17:57:05.105Z,10.83
2022-10-25T18:00:18.051Z,10.79
2022-10-25T18:03:27.383Z,10.69
2022-10-25T18:06:36.397Z,10.68
2022-10-25T18:09:45.433Z,10.62
2022-10-25T18:12:54.348Z,10.59
2022-10-25T18:19:18.580Z,10.48
2022-10-25T18:22:26.924Z,10.43
2022-10-25T18:25:35.395Z,10.38
2022-10-25T18:28:44.699Z,10.33
2022-10-25T18:31:54.798Z,10.28
2022-10-25T18:35:03.104Z,10.26
2022-10-25T18:38:15.713Z,10.19
2022-10-25T18:41:29.385Z,10.15
2022-10-25T18:44:40.103Z,10.10
2022-10-25T18:47:54.296Z,10.06
2022-10-25T18:51:06.537Z,10.04
2022-10-25T18:54:15.076Z,10.02
2022-10-25T18:57:23.344Z,10.03
2022-10-25T19:00:32.016Z,9.97
2022-10-25T19:03:42.215Z,9.97
2022-10-25T19:06:50.866Z,9.82
2022-10-25T19:09:59.198Z,9.76
2022-10-25T19:13:08.774Z,9.74
2022-10-25T19:16:17.498Z,9.72
2022-10-25T19:19:27.697Z,9.76
2022-10-25T19:22:36.177Z,9.77
2022-10-25T19:25:45.319Z,9.66
2022-10-25T19:28:59.772Z,9.65
2022-10-25T19:32:08.282Z,9.65
2022-10-25T19:35:19.419Z,9.64
2022-10-25T19:38:27.989Z,9.62
2022-10-25T19:41:36.283Z,9.58
2022-10-25T19:44:44.665Z,9.56
2022-10-25T19:47:56.948Z,9.56
2022-10-25T19:51:09.082Z,9.60
2022-10-25T19:54:17.338Z,9.63
2022-10-25T19:57:25.732Z,9.66
2022-10-25T20:00:34.933Z,9.65
2022-10-25T20:03:45.233Z,9.64
2022-10-25T20:06:55.181Z,9.59
2022-10-25T20:10:03.481Z,9.53
2022-10-25T20:13:12.052Z,9.50
2022-10-25T20:16:20.520Z,9.48
2022-10-25T20:19:29.098Z,9.41
2022-10-25T20:22:39.183Z,9.43
2022-10-25T20:25:47.847Z,9.44
2022-10-25T20:28:58.634Z,9.47
2022-10-25T20:32:07.213Z,9.55
2022-10-25T20:35:16.029Z,9.46
2022-10-25T20:38:26.567Z,9.40
2022-10-25T20:41:37.118Z,9.36
2022-10-25T20:44:45.460Z,9.43
2022-10-25T20:47:55.923Z,9.56
2022-10-25T20:51:07.798Z,9.64
2022-10-25T20:54:18.559Z,9.58
2022-10-25T20:57:26.776Z,9.43
2022-10-25T21:00:35.576Z,9.36
2022-10-25T21:03:44.498Z,9.29
2022-10-25T21:06:53.685Z,9.26
2022-10-25T21:10:03.350Z,9.23
2022-10-25T21:13:12.403Z,9.20
2022-10-25T21:16:20.858Z,9.25
2022-10-25T21:19:29.383Z,9.22
2022-10-25T21:22:41.077Z,9.29
2022-10-25T21:25:59.135Z,9.13
2022-10-25T21:29:08.739Z,9.06
2022-10-25T21:32:17.172Z,8.96
2022-10-25T21:35:25.884Z,8.89
2022-10-25T21:38:34.458Z,8.82
2022-10-25T21:41:44.241Z,8.74
2022-10-25T21:44:52.706Z,8.69
2022-10-25T21:48:01.227Z,8.70
2022-10-25T21:51:09.819Z,8.69
2022-10-25T21:54:18.188Z,8.65
2022-10-25T21:57:28.099Z,8.62
2022-10-25T22:00:36.465Z,8.66
2022-10-25T22:03:45.108Z,8.65
2022-10-25T22:06:53.593Z,8.72
2022-10-25T22:10:01.814Z,8.68
2022-10-25T22:13:11.411Z,8.67
2022-10-25T22:16:20.994Z,8.66
2022-10-25T22:19:29.477Z,8.59
2022-10-25T22:22:38.023Z,8.51
2022-10-25T22:25:46.440Z,8.52
2022-10-25T22:28:58.890Z,8.62
2022-10-25T22:32:07.118Z,8.58
2022-10-25T22:35:15.737Z,8.52
2022-10-25T22:38:23.964Z,8.53
2022-10-25T22:41:32.981Z,8.56
2022-10-25T22:44:42.853Z,8.63
2022-10-25T22:47:52.997Z,8.73
2022-10-25T22:51:01.755Z,8.83
2022-10-25T22:54:10.204Z,8.85
2022-10-25T22:57:18.711Z,8.92
2022-10-25T23:00:28.565Z,9.00
2022-10-25T23:03:39.374Z,9.08
2022-10-25T23:06:47.873Z,9.21
2022-10-25T23:09:56.378Z,9.41
2022-10-25T23:13:04.680Z,9.41
2022-10-25T23:16:16.395Z,9.55
2022-10-25T23:19:24.601Z,9.62
2022-10-25T23:22:32.759Z,9.80
2022-10-25T23:25:41.203Z,9.77
2022-10-25T23:28:49.742Z,9.75
2022-10-25T23:31:59.362Z,9.77
2022-10-25T23:35:08.972Z,9.83
2022-10-25T23:38:17.425Z,9.84
2022-10-25T23:41:26.008Z,9.78
2022-10-25T23:44:34.190Z,9.84
2022-10-25T23:47:44.235Z,9.83
2022-10-25T23:50:58.186Z,9.82
2022-10-25T23:54:09.462Z,9.92
2022-10-25T23:57:17.917Z,9.95
